logo dgac
Domingo 21 de Enero del 2018

Metar

Buscar por aerodromo o helipuerto
Ingrese nombre de aeródromo, localidad o designador OACI:


METAR del 21-01-2018 a las 14:00 UTC
METAR SAZS 211400Z 30010KT 9999 FEW040 BKN200 21/14 Q1012
Viento: dirección 300 grados, velocidad 10 nudos
Visibilidad: 10 km o más
Nubes: Escasa nubosidad a 4000 pies sobre el nivel del aeródromo
Nubes: Nublado a 20000 pies sobre el nivel del aeródromo
Temperatura: 21 °C
Rocío: 14 °C
Humedad_relativa: 64%
Presión: 1012 hPa
METAR del 21-01-2018 a las 14:00 UTC
METAR SAWH 211400Z 23016KT 9999 SCT040 SCT100 10/04 Q0993
Viento: dirección 230 grados, velocidad 16 nudos
Visibilidad: 10 km o más
Nubes: Nubosidad parcial a 4000 pies sobre el nivel del aeródromo
Nubes: Nubosidad parcial a 10000 pies sobre el nivel del aeródromo
Temperatura: 10 °C
Rocío: 4 °C
Humedad_relativa: 66%
Presión: 993 hPa
METAR del 21-01-2018 a las 14:00 UTC
METAR SAWE 211400Z NIL
Nan: NIL
METAR del 21-01-2018 a las 14:00 UTC
METAR SAWG 211400Z 23016KT CAVOK 19/00 Q0999
Viento: dirección 230 grados, velocidad 16 nudos
Visibilidad: 10 km o más,
    sin nubes bajo los 5.000 pies o bajo del MSA (Mínimo de Seguridad del Aeródromo),
    sin cumulonimbus, y sin fenómenos de tiempo significativo en el aeródromo o alrededores
Temperatura: 19 °C
Rocío: 0 °C
Humedad_relativa: 28%
Presión: 999 hPa
METAR del 21-01-2018 a las 14:00 UTC
METAR SARE 211400Z 05002KT 9999 BKN007 BKN030 OVC100 24/23 Q1008 RETSRA
Viento: dirección 050 grados, velocidad 2 nudos
Visibilidad: 10 km o más
Nubes: Nublado a 700 pies sobre el nivel del aeródromo
Nubes: Nublado a 3000 pies sobre el nivel del aeródromo
Nubes: Cubierto a 10000 pies sobre el nivel del aeródromo
Temperatura: 24 °C
Rocío: 23 °C
Humedad_relativa: 94%
Presión: 1008 hPa
Se observó recientemente Tormenta Lluvia
METAR del 21-01-2018 a las 14:00 UTC
METAR SAZN 211400Z 14004KT CAVOK 27/13 Q1007
Viento: dirección 140 grados, velocidad 4 nudos
Visibilidad: 10 km o más,
    sin nubes bajo los 5.000 pies o bajo del MSA (Mínimo de Seguridad del Aeródromo),
    sin cumulonimbus, y sin fenómenos de tiempo significativo en el aeródromo o alrededores
Temperatura: 27 °C
Rocío: 13 °C
Humedad_relativa: 42%
Presión: 1007 hPa
METAR del 21-01-2018 a las 14:00 UTC
METAR SAZM 211400Z 08009KT CAVOK 25/21 Q1011
Viento: dirección 080 grados, velocidad 9 nudos
Visibilidad: 10 km o más,
    sin nubes bajo los 5.000 pies o bajo del MSA (Mínimo de Seguridad del Aeródromo),
    sin cumulonimbus, y sin fenómenos de tiempo significativo en el aeródromo o alrededores
Temperatura: 25 °C
Rocío: 21 °C
Humedad_relativa: 79%
Presión: 1011 hPa
METAR del 21-01-2018 a las 14:00 UTC
METAR SAVC 211400Z 16005KT 090V180 CAVOK 25/11 Q1006
Viento: dirección 160 grados, velocidad 5 nudos
Viento con dirección variable entre 090 y 180 grados
Visibilidad: 10 km o más,
    sin nubes bajo los 5.000 pies o bajo del MSA (Mínimo de Seguridad del Aeródromo),
    sin cumulonimbus, y sin fenómenos de tiempo significativo en el aeródromo o alrededores
Temperatura: 25 °C
Rocío: 11 °C
Humedad_relativa: 41%
Presión: 1006 hPa
METAR del 21-01-2018 a las 14:00 UTC
METAR SABE 211400Z 36005KT CAVOK 29/17 Q1009
Viento: dirección 360 grados, velocidad 5 nudos
Visibilidad: 10 km o más,
    sin nubes bajo los 5.000 pies o bajo del MSA (Mínimo de Seguridad del Aeródromo),
    sin cumulonimbus, y sin fenómenos de tiempo significativo en el aeródromo o alrededores
Temperatura: 29 °C
Rocío: 17 °C
Humedad_relativa: 48%
Presión: 1009 hPa
METAR del 21-01-2018 a las 14:00 UTC
METAR SAME 211400Z 09003KT CAVOK 27/15 Q1009
Viento: dirección 090 grados, velocidad 3 nudos
Visibilidad: 10 km o más,
    sin nubes bajo los 5.000 pies o bajo del MSA (Mínimo de Seguridad del Aeródromo),
    sin cumulonimbus, y sin fenómenos de tiempo significativo en el aeródromo o alrededores
Temperatura: 27 °C
Rocío: 15 °C
Humedad_relativa: 48%
Presión: 1009 hPa